logo
Rechercher aéroport 
image banner adimage banner adimage banner ad
image banner ad

CA66 - Monterey Bay Academy

Situé à Watsonville, United States

ICAO - CA66, IATA -

Données fournies par Airmate  

Information générale

Coordonnées: N36°54'22" W121°50'35"
Élévation : 70 feet MSL.
Variation magnétique : 16° East
Voir autres Aéroports à California

Données opérationnelles

Special qualification required
Heure actuelle UTC:
Heure actuelle locale:
Météo à : KWVI - Watsonville Muni ( 6 km )
METAR: KWVI 011753Z AUTO 00000KT 10SM OVC007 15/13 A2990 RMK AO2 CIG 006V010 SLP123 T01500133 10156 20117 51008
Voir NOTAMs / SUP AIP / TFR affectant cet aéroport [VIEW]
Fréquences de communication: [VIEW]

Pistes:

Identifiant RWYQFULongueur (ft)Largeur (ft)SurfaceLDA (ft)
10220050GRASS
28220050GRASS

Coordonnées de l'aéroport

Adresse: Watsonville United States

Vue satellite de CA66